This is the latest recevied weather packets stored in our database for station/object DH0BRO-3. If no packets are shown the sender has not sent any weather packets the latest 10 day(s).
| Time | Temp. | Humidity | Pressure | Rain* | Wind** | Luminosity | Snow |
|---|---|---|---|---|---|---|---|
| 1778190444 | 8.89° C | 89% | 1019 hPa | 0 mm | - | - | - |
| 1778184144 | 9.44° C | 88% | 1018.3 hPa | 0 mm | - | - | - |
| 1778169073 | 10.56° C | 82% | 1016.7 hPa | 0 mm | - | - | - |
| 1778167267 | 10.56° C | 82% | 1016.5 hPa | 0 mm | - | - | - |
| 1778165481 | 10.56° C | 81% | 1016.3 hPa | 0 mm | - | - | - |
| 1778161849 | 9.44° C | 83% | 1016.1 hPa | 0 mm | - | - | - |
| 1778160043 | 9.44° C | 84% | 1015.8 hPa | 0 mm | - | - | - |
| 1778157334 | 8.89° C | 85% | 1015.6 hPa | 0 mm | - | - | - |
| 1778154625 | 8.33° C | 86% | 1015.5 hPa | 0 mm | - | - | - |
| 1778151916 | 8.89° C | 86% | 1015.2 hPa | 0 mm | - | - | - |
| 1778150109 | 8.89° C | 84% | 1015 hPa | 0 mm | - | - | - |
| 1778148304 | 8.33° C | 85% | 1014.8 hPa | 0 mm | - | - | - |
| 1778144535 | 8.33° C | 85% | 1013.9 hPa | 0 mm | - | - | - |
| 1778143633 | 8.33° C | 86% | 1013.8 hPa | 0 mm | - | - | - |
| 1778142730 | 8.33° C | 86% | 1013.7 hPa | 0 mm | - | - | - |
| 1778140342 | 7.78° C | 87% | 1013.2 hPa | 0 mm | - | - | - |
| 1778136711 | 7.78° C | 88% | 1012.8 hPa | 0 mm | - | - | - |
| 1778135807 | 7.78° C | 88% | 1012.6 hPa | 0 mm | - | - | - |
| 1778134904 | 7.78° C | 88% | 1012.4 hPa | 0 mm | - | - | - |
| 1778124970 | 7.78° C | 87% | 1011.2 hPa | 0 mm | - | - | - |
| 1778122261 | 7.78° C | 87% | 1010.9 hPa | 0 mm | - | - | - |
| 1778114134 | 9.44° C | 86% | 1010 hPa | 0 mm | - | - | - |
| 1778113251 | 9.44° C | 87% | 1009.8 hPa | 0 mm | - | - | - |
| 1778112328 | 10° C | 87% | 1009.6 hPa | 0 mm | - | - | - |
| 1778111425 | 10° C | 87% | 1009.6 hPa | 0 mm | - | - | - |
* Rain latest hour (hover to see other rain measurements)
** Current wind speed in m/s (hover to see current wind gust speed)